sensor_id;sensor_type;location;lat;lon;timestamp;P1;durP1;ratioP1;P2;durP2;ratioP2
21281;SDS011;10800;53.096;18.328;2024-01-30T00:00:38;39.57;;;14.67;;
21281;SDS011;10800;53.096;18.328;2024-01-30T00:05:46;44.60;;;14.03;;
21281;SDS011;10800;53.096;18.328;2024-01-30T00:10:51;27.53;;;8.63;;
21281;SDS011;10800;53.096;18.328;2024-01-30T00:15:58;36.23;;;11.40;;
21281;SDS011;10800;53.096;18.328;2024-01-30T00:21:03;29.00;;;10.97;;
21281;SDS011;10800;53.096;18.328;2024-01-30T00:26:08;37.90;;;10.80;;
21281;SDS011;10800;53.096;18.328;2024-01-30T00:31:14;43.97;;;13.73;;
21281;SDS011;10800;53.096;18.328;2024-01-30T00:36:20;28.50;;;11.57;;
21281;SDS011;10800;53.096;18.328;2024-01-30T00:41:26;30.43;;;11.63;;
21281;SDS011;10800;53.096;18.328;2024-01-30T00:46:32;25.93;;;10.90;;
21281;SDS011;10800;53.096;18.328;2024-01-30T00:51:37;34.43;;;12.63;;
21281;SDS011;10800;53.096;18.328;2024-01-30T00:56:42;28.03;;;10.83;;
21281;SDS011;10800;53.096;18.328;2024-01-30T01:01:47;29.50;;;11.90;;
21281;SDS011;10800;53.096;18.328;2024-01-30T01:06:54;26.03;;;10.80;;
21281;SDS011;10800;53.096;18.328;2024-01-30T01:11:59;34.33;;;12.53;;
21281;SDS011;10800;53.096;18.328;2024-01-30T01:17:05;27.53;;;10.13;;
21281;SDS011;10800;53.096;18.328;2024-01-30T01:22:11;23.30;;;8.93;;
21281;SDS011;10800;53.096;18.328;2024-01-30T01:27:17;26.87;;;10.07;;
21281;SDS011;10800;53.096;18.328;2024-01-30T01:32:24;26.93;;;9.53;;
21281;SDS011;10800;53.096;18.328;2024-01-30T01:37:32;21.60;;;8.43;;
21281;SDS011;10800;53.096;18.328;2024-01-30T01:42:38;20.97;;;10.30;;
21281;SDS011;10800;53.096;18.328;2024-01-30T01:47:44;24.20;;;9.10;;
21281;SDS011;10800;53.096;18.328;2024-01-30T01:52:52;26.57;;;7.90;;
21281;SDS011;10800;53.096;18.328;2024-01-30T01:57:59;21.73;;;7.87;;
21281;SDS011;10800;53.096;18.328;2024-01-30T02:03:08;23.20;;;8.00;;
21281;SDS011;10800;53.096;18.328;2024-01-30T02:08:18;16.77;;;8.20;;
21281;SDS011;10800;53.096;18.328;2024-01-30T02:13:24;16.63;;;7.43;;
21281;SDS011;10800;53.096;18.328;2024-01-30T02:18:32;18.40;;;8.27;;
21281;SDS011;10800;53.096;18.328;2024-01-30T02:23:39;21.37;;;9.63;;
21281;SDS011;10800;53.096;18.328;2024-01-30T02:28:48;20.93;;;8.10;;
21281;SDS011;10800;53.096;18.328;2024-01-30T02:33:55;21.23;;;8.87;;
21281;SDS011;10800;53.096;18.328;2024-01-30T02:39:01;18.67;;;8.13;;
21281;SDS011;10800;53.096;18.328;2024-01-30T02:44:07;18.87;;;8.00;;
21281;SDS011;10800;53.096;18.328;2024-01-30T02:49:18;17.33;;;8.50;;
21281;SDS011;10800;53.096;18.328;2024-01-30T02:54:23;27.67;;;7.47;;
21281;SDS011;10800;53.096;18.328;2024-01-30T02:59:30;22.40;;;8.10;;
21281;SDS011;10800;53.096;18.328;2024-01-30T03:04:37;28.43;;;8.70;;
21281;SDS011;10800;53.096;18.328;2024-01-30T03:09:50;23.73;;;8.10;;
21281;SDS011;10800;53.096;18.328;2024-01-30T03:15:01;14.73;;;7.97;;
21281;SDS011;10800;53.096;18.328;2024-01-30T03:20:08;20.60;;;8.20;;
21281;SDS011;10800;53.096;18.328;2024-01-30T03:25:18;17.90;;;9.13;;
21281;SDS011;10800;53.096;18.328;2024-01-30T03:30:25;25.07;;;8.70;;
21281;SDS011;10800;53.096;18.328;2024-01-30T03:35:45;18.40;;;8.13;;
21281;SDS011;10800;53.096;18.328;2024-01-30T03:40:51;18.13;;;9.77;;
21281;SDS011;10800;53.096;18.328;2024-01-30T03:45:57;21.50;;;7.77;;
21281;SDS011;10800;53.096;18.328;2024-01-30T03:51:03;23.07;;;8.97;;
21281;SDS011;10800;53.096;18.328;2024-01-30T03:56:09;17.90;;;7.70;;
21281;SDS011;10800;53.096;18.328;2024-01-30T04:01:15;20.17;;;8.07;;
21281;SDS011;10800;53.096;18.328;2024-01-30T04:06:22;21.57;;;9.17;;
21281;SDS011;10800;53.096;18.328;2024-01-30T04:11:28;24.33;;;9.37;;
21281;SDS011;10800;53.096;18.328;2024-01-30T04:16:35;25.97;;;10.33;;
21281;SDS011;10800;53.096;18.328;2024-01-30T04:21:40;18.77;;;8.73;;
21281;SDS011;10800;53.096;18.328;2024-01-30T04:26:48;28.37;;;11.07;;
21281;SDS011;10800;53.096;18.328;2024-01-30T04:31:53;17.80;;;7.50;;
21281;SDS011;10800;53.096;18.328;2024-01-30T04:36:59;17.53;;;7.87;;
21281;SDS011;10800;53.096;18.328;2024-01-30T04:42:06;24.07;;;11.07;;
21281;SDS011;10800;53.096;18.328;2024-01-30T04:47:12;22.97;;;8.83;;
21281;SDS011;10800;53.096;18.328;2024-01-30T04:52:19;19.53;;;8.27;;
21281;SDS011;10800;53.096;18.328;2024-01-30T04:57:26;23.13;;;9.30;;
21281;SDS011;10800;53.096;18.328;2024-01-30T05:02:32;20.60;;;7.90;;
21281;SDS011;10800;53.096;18.328;2024-01-30T05:07:38;22.47;;;9.63;;
21281;SDS011;10800;53.096;18.328;2024-01-30T05:12:45;22.87;;;8.70;;
21281;SDS011;10800;53.096;18.328;2024-01-30T05:17:51;18.20;;;7.30;;
21281;SDS011;10800;53.096;18.328;2024-01-30T05:23:00;16.87;;;6.53;;
21281;SDS011;10800;53.096;18.328;2024-01-30T05:28:09;21.57;;;8.53;;
21281;SDS011;10800;53.096;18.328;2024-01-30T05:33:17;16.63;;;8.03;;
21281;SDS011;10800;53.096;18.328;2024-01-30T05:38:27;22.70;;;7.93;;
21281;SDS011;10800;53.096;18.328;2024-01-30T05:43:34;32.13;;;11.73;;
21281;SDS011;10800;53.096;18.328;2024-01-30T05:48:40;38.67;;;12.27;;
21281;SDS011;10800;53.096;18.328;2024-01-30T05:53:49;19.80;;;9.70;;
21281;SDS011;10800;53.096;18.328;2024-01-30T05:58:54;27.93;;;11.57;;
21281;SDS011;10800;53.096;18.328;2024-01-30T06:04:02;22.13;;;9.00;;
21281;SDS011;10800;53.096;18.328;2024-01-30T06:09:10;15.13;;;5.77;;
21281;SDS011;10800;53.096;18.328;2024-01-30T06:14:19;18.07;;;7.97;;
21281;SDS011;10800;53.096;18.328;2024-01-30T06:19:26;17.27;;;6.83;;
21281;SDS011;10800;53.096;18.328;2024-01-30T06:24:32;20.83;;;5.90;;
21281;SDS011;10800;53.096;18.328;2024-01-30T06:29:39;16.07;;;7.17;;
21281;SDS011;10800;53.096;18.328;2024-01-30T06:34:45;15.57;;;7.50;;
21281;SDS011;10800;53.096;18.328;2024-01-30T06:39:52;22.40;;;7.40;;
21281;SDS011;10800;53.096;18.328;2024-01-30T06:44:57;17.00;;;6.50;;
21281;SDS011;10800;53.096;18.328;2024-01-30T06:50:03;13.13;;;5.30;;
21281;SDS011;10800;53.096;18.328;2024-01-30T06:55:09;9.97;;;5.33;;
21281;SDS011;10800;53.096;18.328;2024-01-30T07:00:15;15.37;;;6.30;;
21281;SDS011;10800;53.096;18.328;2024-01-30T07:05:22;9.40;;;6.30;;
21281;SDS011;10800;53.096;18.328;2024-01-30T07:10:27;21.07;;;7.20;;
21281;SDS011;10800;53.096;18.328;2024-01-30T07:15:34;18.27;;;6.90;;
21281;SDS011;10800;53.096;18.328;2024-01-30T07:20:45;15.17;;;8.43;;
21281;SDS011;10800;53.096;18.328;2024-01-30T07:25:51;21.33;;;8.30;;
21281;SDS011;10800;53.096;18.328;2024-01-30T07:31:01;27.77;;;8.73;;
21281;SDS011;10800;53.096;18.328;2024-01-30T07:36:08;25.23;;;9.57;;
21281;SDS011;10800;53.096;18.328;2024-01-30T07:41:14;21.20;;;10.10;;
21281;SDS011;10800;53.096;18.328;2024-01-30T07:46:19;17.53;;;7.83;;
21281;SDS011;10800;53.096;18.328;2024-01-30T07:51:25;25.87;;;8.47;;
21281;SDS011;10800;53.096;18.328;2024-01-30T07:56:32;21.33;;;8.10;;
21281;SDS011;10800;53.096;18.328;2024-01-30T08:01:39;19.50;;;7.63;;
21281;SDS011;10800;53.096;18.328;2024-01-30T08:06:44;15.70;;;6.40;;
21281;SDS011;10800;53.096;18.328;2024-01-30T08:11:58;20.70;;;7.13;;
21281;SDS011;10800;53.096;18.328;2024-01-30T08:17:05;24.90;;;7.70;;
21281;SDS011;10800;53.096;18.328;2024-01-30T08:22:19;19.27;;;7.23;;
21281;SDS011;10800;53.096;18.328;2024-01-30T08:27:25;18.50;;;7.57;;
21281;SDS011;10800;53.096;18.328;2024-01-30T08:32:32;18.73;;;7.87;;
21281;SDS011;10800;53.096;18.328;2024-01-30T08:37:41;27.10;;;7.87;;
21281;SDS011;10800;53.096;18.328;2024-01-30T08:42:48;29.50;;;8.80;;
21281;SDS011;10800;53.096;18.328;2024-01-30T08:47:53;20.50;;;6.63;;
21281;SDS011;10800;53.096;18.328;2024-01-30T08:53:00;16.30;;;7.40;;
21281;SDS011;10800;53.096;18.328;2024-01-30T08:58:07;20.67;;;7.43;;
21281;SDS011;10800;53.096;18.328;2024-01-30T09:03:15;17.53;;;6.73;;
21281;SDS011;10800;53.096;18.328;2024-01-30T09:08:22;12.00;;;7.20;;
21281;SDS011;10800;53.096;18.328;2024-01-30T09:13:41;20.23;;;6.90;;
21281;SDS011;10800;53.096;18.328;2024-01-30T09:18:48;16.67;;;8.50;;
21281;SDS011;10800;53.096;18.328;2024-01-30T09:24:01;16.37;;;6.63;;
21281;SDS011;10800;53.096;18.328;2024-01-30T09:29:09;17.97;;;7.47;;
21281;SDS011;10800;53.096;18.328;2024-01-30T09:34:14;15.43;;;6.77;;
21281;SDS011;10800;53.096;18.328;2024-01-30T09:39:20;30.03;;;10.47;;
21281;SDS011;10800;53.096;18.328;2024-01-30T09:44:25;13.60;;;6.20;;
21281;SDS011;10800;53.096;18.328;2024-01-30T09:49:32;16.53;;;7.07;;
21281;SDS011;10800;53.096;18.328;2024-01-30T09:54:39;45.30;;;15.03;;
21281;SDS011;10800;53.096;18.328;2024-01-30T09:59:46;26.50;;;10.73;;
21281;SDS011;10800;53.096;18.328;2024-01-30T10:04:51;33.33;;;12.60;;
21281;SDS011;10800;53.096;18.328;2024-01-30T10:09:57;27.63;;;10.07;;
21281;SDS011;10800;53.096;18.328;2024-01-30T10:15:03;21.33;;;8.53;;
21281;SDS011;10800;53.096;18.328;2024-01-30T10:20:10;20.90;;;7.80;;
21281;SDS011;10800;53.096;18.328;2024-01-30T10:25:17;15.27;;;6.03;;
21281;SDS011;10800;53.096;18.328;2024-01-30T10:30:25;19.37;;;8.97;;
21281;SDS011;10800;53.096;18.328;2024-01-30T10:35:33;26.63;;;7.83;;
21281;SDS011;10800;53.096;18.328;2024-01-30T10:40:39;19.30;;;7.13;;
21281;SDS011;10800;53.096;18.328;2024-01-30T10:45:45;16.50;;;7.40;;
21281;SDS011;10800;53.096;18.328;2024-01-30T10:50:55;15.97;;;7.13;;
21281;SDS011;10800;53.096;18.328;2024-01-30T10:56:04;20.97;;;7.70;;
21281;SDS011;10800;53.096;18.328;2024-01-30T11:01:11;12.70;;;6.60;;
21281;SDS011;10800;53.096;18.328;2024-01-30T11:06:17;16.07;;;7.33;;
21281;SDS011;10800;53.096;18.328;2024-01-30T11:11:24;13.60;;;6.10;;
21281;SDS011;10800;53.096;18.328;2024-01-30T11:16:33;18.00;;;7.63;;
21281;SDS011;10800;53.096;18.328;2024-01-30T11:21:41;17.67;;;6.17;;
21281;SDS011;10800;53.096;18.328;2024-01-30T11:26:56;20.93;;;7.03;;
21281;SDS011;10800;53.096;18.328;2024-01-30T11:32:03;18.73;;;7.07;;
21281;SDS011;10800;53.096;18.328;2024-01-30T11:42:32;16.03;;;7.17;;
21281;SDS011;10800;53.096;18.328;2024-01-30T11:47:42;21.03;;;6.67;;
21281;SDS011;10800;53.096;18.328;2024-01-30T11:52:48;17.00;;;6.90;;
21281;SDS011;10800;53.096;18.328;2024-01-30T11:57:57;18.00;;;6.30;;
21281;SDS011;10800;53.096;18.328;2024-01-30T12:03:04;17.97;;;7.53;;
21281;SDS011;10800;53.096;18.328;2024-01-30T12:08:15;16.43;;;7.83;;
21281;SDS011;10800;53.096;18.328;2024-01-30T12:13:21;17.97;;;6.40;;
21281;SDS011;10800;53.096;18.328;2024-01-30T12:18:27;18.03;;;7.70;;
21281;SDS011;10800;53.096;18.328;2024-01-30T12:23:32;18.53;;;8.23;;
21281;SDS011;10800;53.096;18.328;2024-01-30T12:28:53;21.27;;;8.03;;
21281;SDS011;10800;53.096;18.328;2024-01-30T12:33:58;26.77;;;6.80;;
21281;SDS011;10800;53.096;18.328;2024-01-30T12:39:10;21.40;;;9.37;;
21281;SDS011;10800;53.096;18.328;2024-01-30T12:44:18;25.97;;;7.53;;
21281;SDS011;10800;53.096;18.328;2024-01-30T12:49:24;17.80;;;7.23;;
21281;SDS011;10800;53.096;18.328;2024-01-30T12:54:33;22.00;;;7.83;;
21281;SDS011;10800;53.096;18.328;2024-01-30T12:59:39;16.37;;;7.63;;
21281;SDS011;10800;53.096;18.328;2024-01-30T13:04:45;27.13;;;7.83;;
21281;SDS011;10800;53.096;18.328;2024-01-30T13:09:52;14.07;;;7.50;;
21281;SDS011;10800;53.096;18.328;2024-01-30T13:14:57;17.07;;;7.40;;
21281;SDS011;10800;53.096;18.328;2024-01-30T13:20:05;17.50;;;7.43;;
21281;SDS011;10800;53.096;18.328;2024-01-30T13:25:14;18.90;;;6.00;;
21281;SDS011;10800;53.096;18.328;2024-01-30T13:30:19;14.60;;;6.87;;
21281;SDS011;10800;53.096;18.328;2024-01-30T13:35:25;19.30;;;8.07;;
21281;SDS011;10800;53.096;18.328;2024-01-30T13:40:30;20.00;;;7.33;;
21281;SDS011;10800;53.096;18.328;2024-01-30T13:45:44;23.77;;;7.83;;
21281;SDS011;10800;53.096;18.328;2024-01-30T13:51:24;15.77;;;6.93;;
21281;SDS011;10800;53.096;18.328;2024-01-30T13:56:29;20.70;;;7.67;;
21281;SDS011;10800;53.096;18.328;2024-01-30T14:01:35;14.97;;;6.57;;
21281;SDS011;10800;53.096;18.328;2024-01-30T14:06:40;18.43;;;7.57;;
21281;SDS011;10800;53.096;18.328;2024-01-30T14:11:48;17.80;;;8.00;;
21281;SDS011;10800;53.096;18.328;2024-01-30T14:16:53;23.47;;;7.37;;
21281;SDS011;10800;53.096;18.328;2024-01-30T14:22:01;18.83;;;7.93;;
21281;SDS011;10800;53.096;18.328;2024-01-30T14:27:22;17.37;;;7.60;;
21281;SDS011;10800;53.096;18.328;2024-01-30T14:32:28;28.20;;;8.70;;
21281;SDS011;10800;53.096;18.328;2024-01-30T14:37:33;21.93;;;8.57;;
21281;SDS011;10800;53.096;18.328;2024-01-30T14:42:41;17.20;;;7.93;;
21281;SDS011;10800;53.096;18.328;2024-01-30T14:47:47;18.47;;;9.50;;
21281;SDS011;10800;53.096;18.328;2024-01-30T14:52:52;19.00;;;7.43;;
21281;SDS011;10800;53.096;18.328;2024-01-30T14:57:58;22.83;;;8.00;;
21281;SDS011;10800;53.096;18.328;2024-01-30T15:03:06;24.70;;;9.03;;
21281;SDS011;10800;53.096;18.328;2024-01-30T15:08:22;18.37;;;7.93;;
21281;SDS011;10800;53.096;18.328;2024-01-30T15:13:28;24.20;;;8.53;;
21281;SDS011;10800;53.096;18.328;2024-01-30T15:18:37;31.80;;;11.83;;
21281;SDS011;10800;53.096;18.328;2024-01-30T15:23:44;20.57;;;8.57;;
21281;SDS011;10800;53.096;18.328;2024-01-30T15:28:52;33.40;;;12.27;;
21281;SDS011;10800;53.096;18.328;2024-01-30T15:33:58;85.90;;;28.17;;
21281;SDS011;10800;53.096;18.328;2024-01-30T15:39:08;135.57;;;40.70;;
21281;SDS011;10800;53.096;18.328;2024-01-30T15:44:15;112.17;;;39.63;;
21281;SDS011;10800;53.096;18.328;2024-01-30T15:49:20;51.70;;;20.87;;
21281;SDS011;10800;53.096;18.328;2024-01-30T15:54:26;71.50;;;34.03;;
21281;SDS011;10800;53.096;18.328;2024-01-30T15:59:31;22.53;;;10.20;;
21281;SDS011;10800;53.096;18.328;2024-01-30T16:04:36;46.77;;;16.40;;
21281;SDS011;10800;53.096;18.328;2024-01-30T16:09:43;47.70;;;15.87;;
21281;SDS011;10800;53.096;18.328;2024-01-30T16:14:49;30.17;;;11.70;;
21281;SDS011;10800;53.096;18.328;2024-01-30T16:19:54;37.23;;;11.67;;
21281;SDS011;10800;53.096;18.328;2024-01-30T16:25:00;38.37;;;13.20;;
21281;SDS011;10800;53.096;18.328;2024-01-30T16:30:08;55.70;;;19.00;;
21281;SDS011;10800;53.096;18.328;2024-01-30T16:35:14;38.07;;;13.93;;
21281;SDS011;10800;53.096;18.328;2024-01-30T16:40:19;40.77;;;16.07;;
21281;SDS011;10800;53.096;18.328;2024-01-30T16:45:25;48.90;;;16.83;;
21281;SDS011;10800;53.096;18.328;2024-01-30T16:50:32;41.27;;;14.80;;
21281;SDS011;10800;53.096;18.328;2024-01-30T16:55:37;33.63;;;11.33;;
21281;SDS011;10800;53.096;18.328;2024-01-30T17:00:43;52.90;;;13.87;;
21281;SDS011;10800;53.096;18.328;2024-01-30T17:05:48;32.27;;;15.70;;
21281;SDS011;10800;53.096;18.328;2024-01-30T17:10:56;26.93;;;9.83;;
21281;SDS011;10800;53.096;18.328;2024-01-30T17:16:03;27.17;;;9.77;;
21281;SDS011;10800;53.096;18.328;2024-01-30T17:21:15;37.83;;;10.63;;
21281;SDS011;10800;53.096;18.328;2024-01-30T17:26:21;44.03;;;12.93;;
21281;SDS011;10800;53.096;18.328;2024-01-30T17:31:28;38.07;;;11.77;;
21281;SDS011;10800;53.096;18.328;2024-01-30T17:36:34;28.70;;;10.37;;
21281;SDS011;10800;53.096;18.328;2024-01-30T17:41:40;21.93;;;8.47;;
21281;SDS011;10800;53.096;18.328;2024-01-30T17:46:45;26.27;;;8.93;;
21281;SDS011;10800;53.096;18.328;2024-01-30T17:51:52;24.87;;;8.90;;
21281;SDS011;10800;53.096;18.328;2024-01-30T17:56:57;26.80;;;9.40;;
21281;SDS011;10800;53.096;18.328;2024-01-30T18:02:03;71.37;;;24.53;;
21281;SDS011;10800;53.096;18.328;2024-01-30T18:07:09;98.87;;;30.27;;
21281;SDS011;10800;53.096;18.328;2024-01-30T18:12:22;38.03;;;13.87;;
21281;SDS011;10800;53.096;18.328;2024-01-30T18:17:27;25.00;;;12.83;;
21281;SDS011;10800;53.096;18.328;2024-01-30T18:22:33;31.00;;;15.70;;
21281;SDS011;10800;53.096;18.328;2024-01-30T18:33:36;27.40;;;8.93;;
21281;SDS011;10800;53.096;18.328;2024-01-30T18:38:43;20.73;;;10.73;;
21281;SDS011;10800;53.096;18.328;2024-01-30T18:43:51;29.23;;;9.43;;
21281;SDS011;10800;53.096;18.328;2024-01-30T18:48:57;22.40;;;9.30;;
21281;SDS011;10800;53.096;18.328;2024-01-30T19:00:05;21.80;;;8.40;;
21281;SDS011;10800;53.096;18.328;2024-01-30T19:05:12;28.00;;;9.93;;
21281;SDS011;10800;53.096;18.328;2024-01-30T19:10:22;26.87;;;9.63;;
21281;SDS011;10800;53.096;18.328;2024-01-30T19:15:29;23.07;;;8.57;;
21281;SDS011;10800;53.096;18.328;2024-01-30T19:20:34;19.93;;;7.47;;
21281;SDS011;10800;53.096;18.328;2024-01-30T19:25:40;19.50;;;8.73;;
21281;SDS011;10800;53.096;18.328;2024-01-30T19:30:47;32.53;;;9.33;;
21281;SDS011;10800;53.096;18.328;2024-01-30T19:35:54;18.13;;;7.57;;
21281;SDS011;10800;53.096;18.328;2024-01-30T19:41:02;29.40;;;10.10;;
21281;SDS011;10800;53.096;18.328;2024-01-30T19:46:10;45.17;;;17.27;;
21281;SDS011;10800;53.096;18.328;2024-01-30T19:51:17;53.10;;;19.63;;
21281;SDS011;10800;53.096;18.328;2024-01-30T19:56:22;42.10;;;15.33;;
21281;SDS011;10800;53.096;18.328;2024-01-30T20:01:28;40.23;;;15.00;;
21281;SDS011;10800;53.096;18.328;2024-01-30T20:06:33;45.00;;;14.50;;
21281;SDS011;10800;53.096;18.328;2024-01-30T20:11:39;43.67;;;15.10;;
21281;SDS011;10800;53.096;18.328;2024-01-30T20:16:45;33.77;;;13.97;;
21281;SDS011;10800;53.096;18.328;2024-01-30T20:21:54;33.03;;;12.77;;
21281;SDS011;10800;53.096;18.328;2024-01-30T20:26:59;29.50;;;11.53;;
21281;SDS011;10800;53.096;18.328;2024-01-30T20:37:24;34.87;;;11.93;;
21281;SDS011;10800;53.096;18.328;2024-01-30T20:42:45;25.80;;;10.23;;
21281;SDS011;10800;53.096;18.328;2024-01-30T20:47:51;23.20;;;9.10;;
21281;SDS011;10800;53.096;18.328;2024-01-30T20:52:57;26.13;;;10.10;;
21281;SDS011;10800;53.096;18.328;2024-01-30T20:58:03;24.00;;;9.87;;
21281;SDS011;10800;53.096;18.328;2024-01-30T21:03:10;29.80;;;9.00;;
21281;SDS011;10800;53.096;18.328;2024-01-30T21:08:19;23.57;;;9.23;;
21281;SDS011;10800;53.096;18.328;2024-01-30T21:13:24;34.03;;;11.80;;
21281;SDS011;10800;53.096;18.328;2024-01-30T21:18:36;58.17;;;15.97;;
21281;SDS011;10800;53.096;18.328;2024-01-30T21:23:43;48.30;;;16.90;;
21281;SDS011;10800;53.096;18.328;2024-01-30T21:28:52;53.00;;;17.50;;
21281;SDS011;10800;53.096;18.328;2024-01-30T21:33:57;37.47;;;14.10;;
21281;SDS011;10800;53.096;18.328;2024-01-30T21:39:03;42.63;;;15.87;;
21281;SDS011;10800;53.096;18.328;2024-01-30T21:44:08;47.13;;;13.70;;
21281;SDS011;10800;53.096;18.328;2024-01-30T21:49:14;32.93;;;14.33;;
21281;SDS011;10800;53.096;18.328;2024-01-30T21:54:19;40.90;;;13.13;;
21281;SDS011;10800;53.096;18.328;2024-01-30T21:59:25;33.53;;;12.33;;
21281;SDS011;10800;53.096;18.328;2024-01-30T22:04:30;34.47;;;11.83;;
21281;SDS011;10800;53.096;18.328;2024-01-30T22:09:35;36.03;;;10.37;;
21281;SDS011;10800;53.096;18.328;2024-01-30T22:14:41;26.23;;;10.30;;
21281;SDS011;10800;53.096;18.328;2024-01-30T22:19:46;25.77;;;9.97;;
21281;SDS011;10800;53.096;18.328;2024-01-30T22:24:52;28.40;;;9.93;;
21281;SDS011;10800;53.096;18.328;2024-01-30T22:29:57;20.97;;;8.70;;
21281;SDS011;10800;53.096;18.328;2024-01-30T22:35:03;27.73;;;9.13;;
21281;SDS011;10800;53.096;18.328;2024-01-30T22:40:11;33.27;;;11.07;;
21281;SDS011;10800;53.096;18.328;2024-01-30T22:45:16;36.80;;;12.03;;
21281;SDS011;10800;53.096;18.328;2024-01-30T22:50:22;23.73;;;10.23;;
21281;SDS011;10800;53.096;18.328;2024-01-30T22:55:27;27.40;;;9.20;;
21281;SDS011;10800;53.096;18.328;2024-01-30T23:00:33;40.27;;;10.03;;
21281;SDS011;10800;53.096;18.328;2024-01-30T23:05:41;14.93;;;7.90;;
21281;SDS011;10800;53.096;18.328;2024-01-30T23:10:48;21.43;;;9.87;;
21281;SDS011;10800;53.096;18.328;2024-01-30T23:15:53;22.57;;;9.70;;
21281;SDS011;10800;53.096;18.328;2024-01-30T23:20:59;19.77;;;9.63;;
21281;SDS011;10800;53.096;18.328;2024-01-30T23:26:04;21.53;;;9.13;;
21281;SDS011;10800;53.096;18.328;2024-01-30T23:31:10;21.07;;;8.90;;
21281;SDS011;10800;53.096;18.328;2024-01-30T23:36:16;24.73;;;10.10;;
21281;SDS011;10800;53.096;18.328;2024-01-30T23:41:21;28.23;;;10.43;;
21281;SDS011;10800;53.096;18.328;2024-01-30T23:46:27;22.40;;;9.47;;
21281;SDS011;10800;53.096;18.328;2024-01-30T23:51:32;27.87;;;9.73;;
21281;SDS011;10800;53.096;18.328;2024-01-30T23:56:38;30.40;;;9.93;;
